Time;durP1;ratioP1;P1;durP2;ratioP2;P2;SDS_P1;SDS_P2;PMS_P1;PMS_P2;Temp;Humidity;BMP_temperature;BMP_pressure;BME280_temperature;BME280_humidity;BME280_pressure;Samples;Min_cycle;Max_cycle;Signal;HPM_P1;HPM_P2
2023/10/01 00:01:33;;;;;;;;;;;;;;;24.49;63.50;101356.19;5031638;28;19913;-82
2023/10/01 00:03:58;;;;;;;;;;;;;;;24.53;63.24;101351.72;5024120;28;19922;-82
2023/10/01 00:06:25;;;;;;;;;;;;;;;24.50;63.21;101355.28;5012090;28;19913;-82
2023/10/01 00:08:50;;;;;;;;;;;;;;;24.49;63.43;101352.59;5021113;28;19913;-82
2023/10/01 00:11:16;;;;;;;;;;;;;;;24.49;63.65;101347.25;5024608;28;20012;-82
2023/10/01 00:13:41;;;;;;;;;;;;;;;24.45;63.53;101349.00;5022784;28;19914;-82
2023/10/01 00:16:06;;;;;;;;;;;;;;;24.47;63.51;101347.25;5022698;28;19928;-81
2023/10/01 00:18:32;;;;;;;;;;;;;;;24.45;63.30;101340.09;5008206;28;19920;-81
2023/10/01 00:20:58;;;;;;;;;;;;;;;24.45;63.46;101341.00;5026865;28;19943;-82
2023/10/01 00:23:23;;;;;;;;;;;;;;;24.48;63.28;101348.13;5023065;28;19918;-83
2023/10/01 00:25:49;;;;;;;;;;;;;;;24.44;63.51;101343.66;5026839;28;19923;-82
2023/10/01 00:28:15;;;;;;;;;;;;;;;24.42;63.72;101338.28;5027500;28;19917;-82
2023/10/01 00:30:41;;;;;;;;;;;;;;;24.42;63.27;101337.41;5026153;28;20008;-83
2023/10/01 00:33:07;;;;;;;;;;;;;;;24.41;63.38;101332.97;5028978;28;19948;-82
2023/10/01 00:35:33;;;;;;;;;;;;;;;24.46;63.66;101345.44;5013973;28;19983;-82
2023/10/01 00:37:58;;;;;;;;;;;;;;;24.44;63.40;101339.19;5030589;28;19913;-82
2023/10/01 00:40:24;;;;;;;;;;;;;;;24.40;63.36;101345.41;5011799;28;20401;-82
2023/10/01 00:42:49;;;;;;;;;;;;;;;24.44;63.52;101338.31;5030866;28;19924;-82
2023/10/01 00:45:15;;;;;;;;;;;;;;;24.41;63.52;101333.84;5013437;28;19936;-82
2023/10/01 00:47:41;;;;;;;;;;;;;;;24.38;63.56;101341.81;5025518;28;20041;-82
2023/10/01 00:50:16;;;;;;;;;;;;;;;24.39;63.42;101340.97;5012088;28;19913;-82
2023/10/01 00:52:41;;;;;;;;;;;;;;;24.36;63.86;101336.50;5012683;28;19929;-83
2023/10/01 00:55:08;;;;;;;;;;;;;;;24.41;63.19;101340.97;5018075;28;19914;-82
2023/10/01 00:57:37;;;;;;;;;;;;;;;24.34;63.33;101332.00;5013674;28;19921;-83
2023/10/01 01:00:03;;;;;;;;;;;;;;;24.33;63.32;101331.13;5028908;28;20361;-82
2023/10/01 01:02:30;;;;;;;;;;;;;;;24.34;63.17;101330.25;5021482;28;19921;-82
2023/10/01 01:05:19;;;;;;;;;;;;;;;24.33;63.20;101325.78;5029995;28;19913;-82
2023/10/01 01:07:44;;;;;;;;;;;;;;;24.34;63.03;101322.25;5030350;28;19967;-82
2023/10/01 01:10:16;;;;;;;;;;;;;;;24.29;62.99;101329.31;5012616;28;19975;-82
2023/10/01 01:12:41;;;;;;;;;;;;;;;24.31;63.10;101326.66;5009596;28;19936;-82
2023/10/01 01:15:12;;;;;;;;;;;;;;;24.29;63.21;101328.44;5019624;28;19928;-82
2023/10/01 01:17:38;;;;;;;;;;;;;;;24.31;63.09;101326.66;5027722;28;19948;-82
2023/10/01 01:20:09;;;;;;;;;;;;;;;24.28;63.04;101324.00;5033620;28;19964;-82
2023/10/01 01:22:36;;;;;;;;;;;;;;;24.29;63.01;101323.97;5024665;28;20384;-83
2023/10/01 01:25:10;;;;;;;;;;;;;;;24.27;62.84;101320.41;5016684;28;19944;-82
2023/10/01 01:27:40;;;;;;;;;;;;;;;24.27;62.86;101317.72;5015182;28;19968;-82
2023/10/01 01:30:17;;;;;;;;;;;;;;;24.27;62.67;101317.72;5034073;28;19974;-82
2023/10/01 01:32:42;;;;;;;;;;;;;;;24.28;62.77;101321.31;5032556;28;20023;-82
2023/10/01 01:35:09;;;;;;;;;;;;;;;24.24;62.92;101319.50;5033496;28;20015;-82
2023/10/01 01:37:46;;;;;;;;;;;;;;;24.26;62.72;101315.97;5020799;28;19913;-82
2023/10/01 01:40:32;;;;;;;;;;;;;;;24.27;62.89;101311.50;5008035;28;19963;-83
2023/10/01 01:42:57;;;;;;;;;;;;;;;24.25;63.06;101314.16;5033692;28;19963;-83
2023/10/01 01:45:27;;;;;;;;;;;;;;;24.24;62.40;101319.50;5015512;28;19961;-82
2023/10/01 01:47:53;;;;;;;;;;;;;;;24.25;62.76;101326.63;5033168;28;20068;-83
2023/10/01 01:50:21;;;;;;;;;;;;;;;24.22;62.71;101321.28;5032964;28;19963;-82
2023/10/01 01:52:49;;;;;;;;;;;;;;;24.24;62.47;101319.50;5005265;28;19922;-83
2023/10/01 01:55:26;;;;;;;;;;;;;;;24.25;62.48;101323.94;4995340;28;20422;-81
2023/10/01 01:58:08;;;;;;;;;;;;;;;24.22;62.55;101329.28;5003806;28;19913;-84
2023/10/01 02:00:38;;;;;;;;;;;;;;;24.20;62.89;101326.59;5011385;28;19967;-83
2023/10/01 02:03:10;;;;;;;;;;;;;;;24.21;62.52;101324.81;5001046;28;19921;-83
2023/10/01 02:05:36;;;;;;;;;;;;;;;24.22;62.36;101322.16;5007987;28;19963;-83
2023/10/01 02:08:06;;;;;;;;;;;;;;;24.21;62.02;101323.03;5002507;28;19913;-82
2023/10/01 02:10:44;;;;;;;;;;;;;;;24.22;62.34;101327.50;5012868;28;19917;-83
2023/10/01 02:13:11;;;;;;;;;;;;;;;24.17;62.43;101331.91;5011714;28;19928;-83
2023/10/01 02:15:37;;;;;;;;;;;;;;;24.18;62.70;101323.03;5014457;28;19918;-83
2023/10/01 02:18:03;;;;;;;;;;;;;;;24.13;62.32;101320.34;5016258;28;19991;-82
2023/10/01 02:20:33;;;;;;;;;;;;;;;24.14;62.35;101315.88;4994405;28;20412;-83
2023/10/01 02:23:02;;;;;;;;;;;;;;;24.16;61.58;101312.31;5009746;28;19918;-83
2023/10/01 02:25:37;;;;;;;;;;;;;;;24.12;61.89;101318.53;5013654;28;19924;-83
2023/10/01 02:28:11;;;;;;;;;;;;;;;23.98;61.57;101309.53;5012024;28;19925;-83
2023/10/01 02:30:37;;;;;;;;;;;;;;;23.99;61.52;101308.66;5016767;28;19918;-83
2023/10/01 02:33:18;;;;;;;;;;;;;;;24.02;61.43;101311.34;5006220;28;19947;-81
2023/10/01 02:35:46;;;;;;;;;;;;;;;24.05;61.20;101313.16;5013145;28;19921;-81
2023/10/01 02:38:57;;;;;;;;;;;;;;;23.93;61.79;101317.50;4985702;28;19917;-82
2023/10/01 02:40:58;;;;;;;;;;;;;;;23.88;62.25;101313.03;4983330;28;20009;-82
2023/10/01 02:43:26;;;;;;;;;;;;;;;23.92;60.84;101315.72;5005655;28;20008;-81
2023/10/01 02:45:52;;;;;;;;;;;;;;;23.81;60.96;101314.72;4982708;28;20382;-81
2023/10/01 02:48:17;;;;;;;;;;;;;;;23.89;61.20;101318.34;4996295;28;19920;-82
2023/10/01 02:50:51;;;;;;;;;;;;;;;23.88;61.08;101315.69;5012141;28;19936;-82
2023/10/01 02:53:20;;;;;;;;;;;;;;;23.93;60.43;101316.59;5012758;28;19928;-82
2023/10/01 02:55:46;;;;;;;;;;;;;;;23.93;60.96;101316.59;5008430;28;19917;-82
2023/10/01 02:58:20;;;;;;;;;;;;;;;23.88;60.02;101316.59;4995862;28;19914;-81
2023/10/01 03:00:46;;;;;;;;;;;;;;;23.77;60.85;101313.81;5000474;28;19925;-83
2023/10/01 03:03:14;;;;;;;;;;;;;;;23.86;59.88;101310.34;5009619;28;19918;-81
2023/10/01 03:05:42;;;;;;;;;;;;;;;23.92;60.37;101312.19;5012093;28;20416;-83
2023/10/01 03:08:11;;;;;;;;;;;;;;;23.84;60.19;101312.09;5004440;28;19937;-81
2023/10/01 03:10:38;;;;;;;;;;;;;;;23.91;59.80;101315.69;5010559;28;19917;-82
2023/10/01 03:13:16;;;;;;;;;;;;;;;23.85;60.63;101305.88;4988975;28;19929;-81
2023/10/01 03:15:44;;;;;;;;;;;;;;;23.78;61.38;101312.03;4992634;28;19992;-81
2023/10/01 03:18:34;;;;;;;;;;;;;;;23.80;59.95;101307.63;4996650;28;20310;-81
2023/10/01 03:28:26;;;;;;;;;;;;;;;23.68;60.14;101313.69;5005761;28;20004;-82
2023/10/01 03:30:52;;;;;;;;;;;;;;;23.73;59.43;101317.31;5012261;28;19929;-81
2023/10/01 03:33:20;;;;;;;;;;;;;;;23.71;60.42;101312.84;5011569;28;20059;-82
2023/10/01 03:35:48;;;;;;;;;;;;;;;23.66;60.21;101312.78;4994980;28;19913;-81
2023/10/01 03:38:15;;;;;;;;;;;;;;;23.67;60.05;101313.72;5011458;28;19914;-81
2023/10/01 03:43:37;;;;;;;;;;;;;;;23.72;59.42;101318.19;5008860;28;20022;-83
2023/10/01 03:46:13;;;;;;;;;;;;;;;23.66;59.76;101314.56;5001232;28;19967;-81
2023/10/01 03:48:57;;;;;;;;;;;;;;;23.68;58.72;101319.03;5014746;28;19936;-83
2023/10/01 03:51:52;;;;;;;;;;;;;;;23.62;59.21;101319.00;5010129;28;19940;-82
2023/10/01 03:54:16;;;;;;;;;;;;;;;23.58;59.88;101319.84;5030366;28;20012;-83
2023/10/01 03:56:47;;;;;;;;;;;;;;;23.61;59.73;101325.19;5029460;28;20357;-82
2023/10/01 03:59:16;;;;;;;;;;;;;;;23.62;59.32;101319.00;5009597;28;20499;-83
2023/10/01 04:02:27;;;;;;;;;;;;;;;23.66;60.20;101325.22;5009157;28;19921;-83
2023/10/01 04:05:04;;;;;;;;;;;;;;;23.66;59.55;101319.91;5036012;28;19917;-82
2023/10/01 04:07:26;;;;;;;;;;;;;;;23.57;60.35;101324.25;5026062;28;19917;-83
2023/10/01 04:09:52;;;;;;;;;;;;;;;23.66;59.83;101327.91;5026129;28;19917;-84
2023/10/01 04:12:20;;;;;;;;;;;;;;;23.63;59.73;101334.09;5028306;28;19990;-84
2023/10/01 04:14:49;;;;;;;;;;;;;;;23.62;59.88;101331.41;5029688;28;19957;-84
2023/10/01 04:17:17;;;;;;;;;;;;;;;23.65;58.88;101327.00;5022092;28;19917;-84
2023/10/01 04:20:00;;;;;;;;;;;;;;;23.50;59.31;101327.75;5028737;28;20610;-84
2023/10/01 04:22:28;;;;;;;;;;;;;;;23.40;60.76;101336.53;5028005;28;20409;-84
2023/10/01 04:25:11;;;;;;;;;;;;;;;23.33;60.66;101332.94;5015155;28;19925;-83
2023/10/01 04:27:41;;;;;;;;;;;;;;;23.28;60.38;101331.06;5021841;28;19917;-83
2023/10/01 04:30:26;;;;;;;;;;;;;;;23.26;60.33;101322.16;5027696;28;19949;-83
2023/10/01 04:32:51;;;;;;;;;;;;;;;23.28;60.65;101326.66;5023191;28;20007;-83
2023/10/01 04:35:17;;;;;;;;;;;;;;;23.26;59.68;101330.16;5033019;28;20446;-84
2023/10/01 04:37:43;;;;;;;;;;;;;;;23.22;60.63;101331.00;5028440;28;19917;-83
2023/10/01 04:43:01;;;;;;;;;;;;;;;23.23;59.47;101332.81;5015188;28;20017;-84
2023/10/01 04:45:36;;;;;;;;;;;;;;;23.24;59.97;101334.59;5009894;28;20402;-83
2023/10/01 04:48:06;;;;;;;;;;;;;;;23.28;59.91;101342.66;5011851;28;20310;-83
2023/10/01 04:50:31;;;;;;;;;;;;;;;23.20;59.47;101340.75;5025981;28;19917;-83
2023/10/01 04:52:59;;;;;;;;;;;;;;;23.23;60.09;101340.81;4983641;28;19987;-83
2023/10/01 04:55:30;;;;;;;;;;;;;;;23.20;60.47;101348.75;5000006;28;20019;-83
2023/10/01 04:57:57;;;;;;;;;;;;;;;23.23;60.26;101346.13;5008901;28;20009;-83
2023/10/01 05:00:23;;;;;;;;;;;;;;;23.23;60.83;101347.03;4999590;28;19921;-83
2023/10/01 05:02:49;;;;;;;;;;;;;;;23.27;59.09;101348.84;4992575;28;19926;-83
2023/10/01 05:05:25;;;;;;;;;;;;;;;23.29;60.43;101352.44;5008793;28;19975;-84
2023/10/01 05:07:59;;;;;;;;;;;;;;;23.31;59.92;101347.13;5007258;28;20012;-83
2023/10/01 05:10:26;;;;;;;;;;;;;;;23.28;60.89;101347.06;4989043;28;19932;-85
2023/10/01 05:12:58;;;;;;;;;;;;;;;23.22;59.78;101350.56;5007377;28;19926;-85
2023/10/01 05:15:31;;;;;;;;;;;;;;;23.20;60.00;101346.09;5008066;28;19921;-84
2023/10/01 05:17:58;;;;;;;;;;;;;;;23.19;60.61;101347.84;5002771;28;19924;-85
2023/10/01 05:20:25;;;;;;;;;;;;;;;23.23;60.37;101351.47;4988095;28;20383;-85
2023/10/01 05:22:54;;;;;;;;;;;;;;;23.21;61.03;101346.09;4989009;28;19936;-86
2023/10/01 05:25:19;;;;;;;;;;;;;;;23.23;60.28;101349.69;5010000;28;19918;-83
2023/10/01 05:27:45;;;;;;;;;;;;;;;23.20;60.26;101354.06;5006410;28;20008;-82
2023/10/01 05:30:32;;;;;;;;;;;;;;;23.18;59.91;101351.41;5004643;28;19917;-83
2023/10/01 05:32:58;;;;;;;;;;;;;;;23.20;59.82;101356.75;5003631;28;19973;-85
2023/10/01 05:35:24;;;;;;;;;;;;;;;23.14;59.64;101361.13;4990181;28;20304;-82
2023/10/01 05:37:50;;;;;;;;;;;;;;;23.12;59.35;101360.22;5006913;28;19923;-83
2023/10/01 05:40:15;;;;;;;;;;;;;;;23.10;60.42;101361.97;5009362;28;20012;-83
2023/10/01 05:42:41;;;;;;;;;;;;;;;23.12;60.00;101367.34;5005149;28;20012;-82
2023/10/01 05:45:14;;;;;;;;;;;;;;;23.16;59.45;101366.50;4977026;28;19992;-82
2023/10/01 05:48:01;;;;;;;;;;;;;;;23.12;59.01;101368.22;5004000;28;19921;-81
2023/10/01 05:50:29;;;;;;;;;;;;;;;23.07;59.01;101361.94;5009610;28;19921;-81
2023/10/01 05:52:55;;;;;;;;;;;;;;;23.12;59.13;101368.22;5010622;28;19922;-82
2023/10/01 05:55:22;;;;;;;;;;;;;;;23.12;58.98;101356.66;5007238;28;20367;-82
2023/10/01 05:57:50;;;;;;;;;;;;;;;23.23;58.50;101365.69;4995704;28;20394;-82
2023/10/01 06:00:27;;;;;;;;;;;;;;;23.23;59.96;101365.69;5011529;28;19942;-84
2023/10/01 06:03:02;;;;;;;;;;;;;;;23.16;59.52;101359.38;5008678;28;19917;-80
2023/10/01 06:05:43;;;;;;;;;;;;;;;23.13;59.32;101359.34;4985197;28;19922;-81
2023/10/01 06:08:19;;;;;;;;;;;;;;;23.14;58.83;101371.78;5010491;28;20004;-82
2023/10/01 06:11:09;;;;;;;;;;;;;;;23.14;59.83;101376.25;5006624;28;19929;-81
2023/10/01 06:14:05;;;;;;;;;;;;;;;23.14;59.31;101386.91;5007420;28;19996;-82
2023/10/01 06:16:33;;;;;;;;;;;;;;;23.17;59.26;101376.25;4987890;28;19991;-81
2023/10/01 06:19:03;;;;;;;;;;;;;;;23.08;59.25;101365.50;5016753;28;19917;-82
2023/10/01 06:21:32;;;;;;;;;;;;;;;23.14;58.28;101379.78;5010944;28;19922;-81
2023/10/01 06:24:10;;;;;;;;;;;;;;;23.19;59.06;101390.50;4981255;28;19924;-82
2023/10/01 06:26:57;;;;;;;;;;;;;;;23.19;59.71;101387.84;5019229;28;19975;-89
2023/10/01 06:29:23;;;;;;;;;;;;;;;23.20;59.06;101388.72;4999959;28;19917;-87
2023/10/01 06:31:48;;;;;;;;;;;;;;;23.19;58.68;101395.81;4998753;28;19957;-86
2023/10/01 06:34:19;;;;;;;;;;;;;;;23.16;59.65;101387.81;4992254;28;19960;-89
2023/10/01 06:36:45;;;;;;;;;;;;;;;23.24;59.50;101410.13;4998524;28;20012;-88
2023/10/01 06:39:19;;;;;;;;;;;;;;;23.15;59.47;101408.19;4993644;28;20016;-89
2023/10/01 06:41:45;;;;;;;;;;;;;;;23.20;59.34;101420.69;5003784;28;20032;-89
2023/10/01 06:44:14;;;;;;;;;;;;;;;23.34;59.87;101417.31;4972836;28;20462;-89
2023/10/01 06:46:40;;;;;;;;;;;;;;;23.23;60.17;101413.63;4992319;28;20008;-88
2023/10/01 06:49:08;;;;;;;;;;;;;;;23.22;59.96;101416.28;4990522;28;19993;-88
2023/10/01 06:51:45;;;;;;;;;;;;;;;23.32;59.72;101423.50;5010324;28;19961;-88
2023/10/01 06:54:11;;;;;;;;;;;;;;;23.21;59.88;101423.38;4974697;28;19927;-88
2023/10/01 06:56:50;;;;;;;;;;;;;;;23.23;60.19;101416.31;4980019;28;19928;-88
2023/10/01 06:59:17;;;;;;;;;;;;;;;23.30;59.34;101419.94;5011341;28;19917;-88
2023/10/01 07:01:56;;;;;;;;;;;;;;;23.33;59.40;101422.66;5011199;28;20025;-88
2023/10/01 07:04:23;;;;;;;;;;;;;;;23.26;60.12;101419.03;4995639;28;19917;-89
2023/10/01 07:06:50;;;;;;;;;;;;;;;23.24;59.82;101427.84;5009614;28;20009;-88
2023/10/01 07:09:27;;;;;;;;;;;;;;;23.24;61.10;101430.50;4997642;28;19917;-87
2023/10/01 07:11:59;;;;;;;;;;;;;;;23.26;60.38;101426.09;4977968;28;19917;-88
2023/10/01 07:14:38;;;;;;;;;;;;;;;23.26;60.27;101426.09;4992735;28;19917;-87
2023/10/01 07:17:13;;;;;;;;;;;;;;;23.26;59.95;101420.78;5016697;28;19917;-91
2023/10/01 07:19:40;;;;;;;;;;;;;;;23.29;60.08;101418.16;5011842;28;19921;-89
2023/10/01 07:22:07;;;;;;;;;;;;;;;23.30;60.29;101420.81;4992273;28;20075;-87
2023/10/01 07:24:33;;;;;;;;;;;;;;;23.27;60.42;101428.78;4978845;28;19918;-89
2023/10/01 07:27:06;;;;;;;;;;;;;;;23.40;59.79;101435.16;4994236;28;19917;-89
2023/10/01 07:29:33;;;;;;;;;;;;;;;23.35;60.44;101424.47;4990263;28;19918;-89
2023/10/01 07:32:00;;;;;;;;;;;;;;;23.33;60.79;101427.97;4978599;28;19922;-90
2023/10/01 07:34:26;;;;;;;;;;;;;;;23.32;61.44;101429.72;4994671;28;20502;-91
2023/10/01 07:36:54;;;;;;;;;;;;;;;23.26;60.36;101423.44;4994249;28;19976;-90
2023/10/01 07:39:21;;;;;;;;;;;;;;;23.35;60.21;101423.56;4975429;28;20549;-88
2023/10/01 07:41:48;;;;;;;;;;;;;;;23.30;60.18;101426.16;4977155;28;19971;-90
2023/10/01 07:44:15;;;;;;;;;;;;;;;23.28;60.76;101424.34;4994284;28;19992;-90
2023/10/01 07:46:42;;;;;;;;;;;;;;;23.27;59.22;101427.91;4992546;28;20363;-90
2023/10/01 07:49:09;;;;;;;;;;;;;;;23.29;60.17;101418.16;4992205;28;19984;-88
2023/10/01 07:51:38;;;;;;;;;;;;;;;23.34;60.56;101424.44;5009464;28;19925;-89
2023/10/01 07:54:12;;;;;;;;;;;;;;;23.33;61.06;101428.88;5016978;28;19937;-87
2023/10/01 07:56:48;;;;;;;;;;;;;;;23.33;61.11;101428.88;5003507;28;19964;-88
2023/10/01 07:59:28;;;;;;;;;;;;;;;23.31;59.60;101425.28;5011993;28;19987;-90
2023/10/01 08:07:17;;;;;;;;;;;;;;;23.34;59.95;101427.09;4989797;28;19917;-89
2023/10/01 08:09:54;;;;;;;;;;;;;;;23.37;61.05;101427.16;5010662;28;20382;-93
2023/10/01 08:12:28;;;;;;;;;;;;;;;23.41;61.02;101423.66;4993979;28;19944;-90
2023/10/01 08:17:43;;;;;;;;;;;;;;;23.29;59.36;101440.38;4996177;28;20432;-90
2023/10/01 08:20:16;;;;;;;;;;;;;;;23.29;58.14;101439.47;4976745;28;19921;-89
2023/10/01 08:23:12;;;;;;;;;;;;;;;23.32;60.58;101440.41;4992290;28;20303;-87
2023/10/01 08:25:32;;;;;;;;;;;;;;;23.41;57.33;101434.31;5006638;28;19924;-88
2023/10/01 08:31:01;;;;;;;;;;;;;;;23.57;52.77;101438.03;5015441;28;19918;-93
2023/10/01 08:33:32;;;;;;;;;;;;;;;23.62;51.94;101433.66;5016901;28;19930;-87
2023/10/01 08:36:01;;;;;;;;;;;;;;;23.45;56.02;101435.22;4986465;28;19927;-89
2023/10/01 08:38:29;;;;;;;;;;;;;;;23.51;56.22;101435.28;4977668;28;19967;-91
2023/10/01 08:41:00;;;;;;;;;;;;;;;23.57;55.61;101444.25;4995270;28;19917;-91
2023/10/01 08:43:28;;;;;;;;;;;;;;;23.67;55.34;101434.59;4974333;28;20406;-89
2023/10/01 08:45:54;;;;;;;;;;;;;;;23.63;55.64;101437.22;5007047;28;19943;-90
2023/10/01 08:48:20;;;;;;;;;;;;;;;23.70;55.19;101433.72;5010315;28;20007;-89
2023/10/01 08:50:45;;;;;;;;;;;;;;;23.87;54.90;101436.59;5025899;28;20004;-88
2023/10/01 08:53:13;;;;;;;;;;;;;;;24.04;54.16;101432.31;4981379;28;19948;-88
2023/10/01 08:58:24;;;;;;;;;;;;;;;24.02;54.09;101423.41;5016908;28;19917;-88
2023/10/01 09:01:10;;;;;;;;;;;;;;;23.93;54.00;101428.66;4981599;28;19924;-87
2023/10/01 09:03:36;;;;;;;;;;;;;;;23.95;53.81;101430.44;5003370;28;19918;-86
2023/10/01 09:06:08;;;;;;;;;;;;;;;23.99;53.85;101420.72;4998357;28;19914;-87
2023/10/01 09:08:45;;;;;;;;;;;;;;;23.98;53.67;101421.56;4977376;28;19949;-88
2023/10/01 09:11:14;;;;;;;;;;;;;;;24.03;53.72;101413.63;4999164;28;19920;-90
2023/10/01 09:13:58;;;;;;;;;;;;;;;24.00;53.67;101422.47;4995825;28;20588;-92
2023/10/01 09:16:42;;;;;;;;;;;;;;;23.95;53.74;101414.44;4989937;28;20000;-91
2023/10/01 09:21:56;;;;;;;;;;;;;;;23.97;53.55;101420.69;5020697;28;19933;-89
2023/10/01 09:24:34;;;;;;;;;;;;;;;23.93;53.48;101410.88;4977282;28;19918;-89
2023/10/01 09:27:09;;;;;;;;;;;;;;;23.98;53.19;101410.91;4978899;28;19925;-89
2023/10/01 09:29:43;;;;;;;;;;;;;;;24.05;52.70;101417.22;4993215;28;19917;-89
2023/10/01 09:32:19;;;;;;;;;;;;;;;23.98;53.09;101410.91;5011834;28;19917;-89
2023/10/01 09:34:53;;;;;;;;;;;;;;;24.13;52.60;101416.41;5005664;28;19917;-88
2023/10/01 09:37:34;;;;;;;;;;;;;;;24.03;52.86;101413.63;4981768;28;19981;-87
2023/10/01 09:40:32;;;;;;;;;;;;;;;24.00;52.55;101413.59;5034007;28;19924;-89
2023/10/01 09:42:56;;;;;;;;;;;;;;;24.05;52.44;101423.44;5014250;28;19921;-88
2023/10/01 09:45:27;;;;;;;;;;;;;;;24.00;52.58;101405.59;5010533;28;19928;-88
2023/10/01 09:48:03;;;;;;;;;;;;;;;24.02;52.05;101412.72;5005267;28;19918;-87
2023/10/01 09:50:29;;;;;;;;;;;;;;;24.03;52.25;101416.31;4984716;28;20008;-87
2023/10/01 09:52:59;;;;;;;;;;;;;;;24.03;52.17;101419.88;5025010;28;19920;-87
2023/10/01 09:55:26;;;;;;;;;;;;;;;24.03;51.86;101413.63;5001996;28;19925;-87
2023/10/01 09:57:55;;;;;;;;;;;;;;;23.98;51.85;101417.16;5023231;28;19913;-88
2023/10/01 10:00:39;;;;;;;;;;;;;;;24.05;51.63;101417.22;4997129;28;19959;-88
2023/10/01 10:03:11;;;;;;;;;;;;;;;24.08;51.69;101414.56;5015879;28;20429;-88
2023/10/01 10:05:39;;;;;;;;;;;;;;;24.17;51.43;101411.97;5019876;28;19923;-88
2023/10/01 10:08:13;;;;;;;;;;;;;;;24.06;51.62;101416.31;5011587;28;20015;-88
2023/10/01 10:10:48;;;;;;;;;;;;;;;24.14;51.20;101415.50;5016571;28;19917;-88
2023/10/01 10:13:50;;;;;;;;;;;;;;;24.18;51.33;101411.09;4998569;28;19935;-87
2023/10/01 10:16:30;;;;;;;;;;;;;;;24.12;51.48;101408.38;5006122;28;20542;-88
2023/10/01 10:19:15;;;;;;;;;;;;;;;24.13;50.91;101411.06;4996921;28;19917;-89
2023/10/01 10:22:16;;;;;;;;;;;;;;;24.29;50.76;101413.84;5022123;28;20607;-90
2023/10/01 10:24:47;;;;;;;;;;;;;;;24.25;50.87;101412.91;5032559;28;20302;-90
2023/10/01 10:27:17;;;;;;;;;;;;;;;24.26;50.47;101411.16;5006713;28;19917;-91
2023/10/01 10:29:58;;;;;;;;;;;;;;;24.17;51.08;101419.97;5011857;28;19951;-89
2023/10/01 10:32:26;;;;;;;;;;;;;;;24.33;50.91;101413.00;5005406;28;20629;-90
2023/10/01 10:35:04;;;;;;;;;;;;;;;24.29;50.79;101411.19;5011516;28;19921;-90
2023/10/01 10:37:37;;;;;;;;;;;;;;;24.30;50.82;101411.19;5021312;28;20007;-90
2023/10/01 10:42:39;;;;;;;;;;;;;;;24.17;50.94;101412.88;5014779;28;19913;-93
2023/10/01 10:45:24;;;;;;;;;;;;;;;24.34;50.43;101412.09;5004976;28;19928;-89
2023/10/01 10:48:00;;;;;;;;;;;;;;;24.32;50.49;101403.19;5016306;28;19976;-93
2023/10/01 10:50:39;;;;;;;;;;;;;;;24.40;50.23;101409.47;5011988;28;19948;-91
2023/10/01 10:53:14;;;;;;;;;;;;;;;24.26;50.64;101416.50;5013380;28;19992;-91
2023/10/01 10:55:54;;;;;;;;;;;;;;;24.29;50.73;101411.19;4994351;28;19925;-91
2023/10/01 10:58:24;;;;;;;;;;;;;;;24.31;50.40;101404.97;4997543;28;19975;-92
2023/10/01 11:00:50;;;;;;;;;;;;;;;24.28;50.66;101414.75;5009050;28;19917;-90
2023/10/01 11:03:18;;;;;;;;;;;;;;;24.33;50.57;101405.88;5007873;28;19980;-88
2023/10/01 11:05:52;;;;;;;;;;;;;;;24.33;50.74;101411.22;5021649;28;20033;-90
2023/10/01 11:08:27;;;;;;;;;;;;;;;24.25;50.74;101410.25;5036956;28;20017;-91
2023/10/01 11:11:10;;;;;;;;;;;;;;;24.27;50.57;101408.47;5019600;28;20016;-94
2023/10/01 11:13:45;;;;;;;;;;;;;;;24.21;50.63;101407.56;5011856;28;19944;-92
2023/10/01 11:16:19;;;;;;;;;;;;;;;24.46;49.92;101397.94;5032903;28;19985;-92
2023/10/01 11:18:47;;;;;;;;;;;;;;;24.50;50.16;101402.47;5019578;28;19952;-91
2023/10/01 11:21:31;;;;;;;;;;;;;;;24.52;49.96;101398.03;5020651;28;19898;-91
2023/10/01 11:24:00;;;;;;;;;;;;;;;24.44;49.97;101400.59;5018075;28;19937;-90
2023/10/01 11:26:29;;;;;;;;;;;;;;;24.41;50.09;101400.59;5030713;28;19928;-89
2023/10/01 11:29:02;;;;;;;;;;;;;;;24.47;49.96;101397.06;5028205;28;19902;-92
2023/10/01 11:31:37;;;;;;;;;;;;;;;24.47;49.91;101405.06;5031497;28;19980;-91
2023/10/01 11:34:26;;;;;;;;;;;;;;;24.44;49.94;101397.03;5022629;28;19930;-90
2023/10/01 11:36:57;;;;;;;;;;;;;;;24.46;50.18;101393.50;5005413;28;20383;-91
2023/10/01 11:39:40;;;;;;;;;;;;;;;24.60;49.59;101395.41;5016966;28;19947;-91
2023/10/01 11:42:19;;;;;;;;;;;;;;;24.61;49.58;101381.16;5026226;28;19917;-89
2023/10/01 11:44:53;;;;;;;;;;;;;;;24.56;49.69;101387.38;5012703;28;19922;-90
2023/10/01 11:47:44;;;;;;;;;;;;;;;24.48;49.31;101372.16;4998872;28;19924;-91
2023/10/01 11:50:32;;;;;;;;;;;;;;;24.42;49.70;101369.44;5000627;28;19925;-90
2023/10/01 11:53:10;;;;;;;;;;;;;;;24.44;49.29;101373.91;5000763;28;20011;-91
2023/10/01 11:55:39;;;;;;;;;;;;;;;24.53;48.99;101362.41;5014445;28;20393;-90
2023/10/01 11:58:26;;;;;;;;;;;;;;;;;;;;;
2023/10/01 12:00:56;;;;;;;;;;;;;;;24.32;48.39;101357.78;4987189;28;19917;-89
2023/10/01 12:03:33;;;;;;;;;;;;;;;24.38;48.99;101350.75;5016234;28;20378;-91
2023/10/01 12:05:59;;;;;;;;;;;;;;;24.48;48.79;101359.69;5026876;28;20449;-88
2023/10/01 12:08:47;;;;;;;;;;;;;;;24.49;49.15;101358.84;4994156;28;19917;-90
2023/10/01 12:11:27;;;;;;;;;;;;;;;24.55;48.89;101363.31;4994089;28;19972;-89
2023/10/01 12:14:17;;;;;;;;;;;;;;;24.56;48.72;101360.66;5018550;28;19925;-89
2023/10/01 12:19:36;;;;;;;;;;;;;;;24.65;48.73;101357.16;5014233;28;19917;-90
2023/10/01 12:22:10;;;;;;;;;;;;;;;24.58;48.71;101358.91;5028093;28;19917;-91
2023/10/01 12:24:44;;;;;;;;;;;;;;;24.78;48.33;101360.78;4994334;28;20291;-90
2023/10/01 12:27:37;;;;;;;;;;;;;;;24.65;48.46;101353.59;4999543;28;19945;-90
2023/10/01 12:30:57;;;;;;;;;;;;;;;24.56;48.42;101354.44;5029665;28;19991;-91
2023/10/01 12:32:55;;;;;;;;;;;;;;;24.69;48.00;101342.03;5004797;28;20315;-90
2023/10/01 12:35:27;;;;;;;;;;;;;;;24.67;47.98;101347.38;5032446;28;19944;-88
2023/10/01 12:38:05;;;;;;;;;;;;;;;24.62;48.07;101356.22;5026625;28;19926;-90
2023/10/01 12:40:36;;;;;;;;;;;;;;;24.71;48.32;101342.94;4995303;28;19965;-89
2023/10/01 12:43:39;;;;;;;;;;;;;;;24.63;48.20;101345.56;4996619;28;19918;-90
2023/10/01 12:46:08;;;;;;;;;;;;;;;24.85;47.90;101354.59;5009453;28;19928;-90
2023/10/01 12:48:38;;;;;;;;;;;;;;;24.74;48.16;101359.88;5003282;28;19993;-87
2023/10/01 12:51:07;;;;;;;;;;;;;;;24.76;48.20;101358.13;4997061;28;19925;-90
2023/10/01 12:53:34;;;;;;;;;;;;;;;24.74;48.36;101359.88;4981959;28;19973;-88
2023/10/01 12:56:03;;;;;;;;;;;;;;;24.68;48.61;101361.59;4985671;28;19918;-88
2023/10/01 12:58:39;;;;;;;;;;;;;;;24.67;48.51;101360.72;4987883;28;19917;-90
2023/10/01 13:01:31;;;;;;;;;;;;;;;24.88;47.99;101353.72;4984123;28;19956;-90
2023/10/01 13:03:54;;;;;;;;;;;;;;;24.84;48.14;101357.25;4994615;28;19927;-93
2023/10/01 13:06:20;;;;;;;;;;;;;;;24.79;47.99;101359.91;4982353;28;19917;-91
2023/10/01 13:08:50;;;;;;;;;;;;;;;24.77;48.17;101359.88;5001476;28;19924;-90
2023/10/01 13:14:18;;;;;;;;;;;;;;;24.76;48.01;101350.09;4987475;28;19945;-91
2023/10/01 13:16:50;;;;;;;;;;;;;;;24.66;48.37;101360.72;5000062;28;19925;-91
2023/10/01 13:19:22;;;;;;;;;;;;;;;24.77;48.00;101349.22;4998538;28;19918;-90
2023/10/01 13:21:47;;;;;;;;;;;;;;;24.79;48.09;101350.09;4993262;28;19980;-91
2023/10/01 13:24:14;;;;;;;;;;;;;;;24.87;47.86;101352.81;4994630;28;19963;-91
2023/10/01 13:26:41;;;;;;;;;;;;;;;24.91;47.71;101356.38;4998138;28;19913;-92
2023/10/01 13:29:28;;;;;;;;;;;;;;;25.00;47.61;101345.75;4983407;28;20037;-92
2023/10/01 13:32:02;;;;;;;;;;;;;;;24.93;47.94;101344.84;4978855;28;19976;-90
2023/10/01 13:34:49;;;;;;;;;;;;;;;24.92;47.75;101352.84;4967792;28;19918;-92
2023/10/01 13:40:29;;;;;;;;;;;;;;;24.86;48.25;101344.78;5012305;28;19917;-93
2023/10/01 14:11:08;;;;;;;;;;;;;;;25.05;47.54;101335.06;5027625;28;19924;-93
2023/10/01 14:13:37;;;;;;;;;;;;;;;25.01;47.57;101339.50;5017759;28;19929;-92